Time;durP1;ratioP1;P1;durP2;ratioP2;P2;SDS_P1;SDS_P2;PMS_P1;PMS_P2;Temp;Humidity;BMP_temperature;BMP_pressure;BME280_temperature;BME280_humidity;BME280_pressure;Samples;Min_cycle;Max_cycle;Signal;HPM_P1;HPM_P2
2023/10/08 00:02:05;;;;;;;32.63;30.42;;;16.60;99.90;;;;;;4968032;28;20035;-72
2023/10/08 00:04:37;;;;;;;49.17;45.90;;;16.60;99.90;;;;;;4972473;28;20047;-72
2023/10/08 00:07:07;;;;;;;43.53;40.85;;;16.70;99.90;;;;;;4963740;28;20051;-72
2023/10/08 00:09:36;;;;;;;37.78;35.38;;;16.70;99.90;;;;;;4967953;28;20047;-72
2023/10/08 00:12:04;;;;;;;44.08;41.25;;;16.60;99.90;;;;;;4970098;28;20030;-72
2023/10/08 00:14:31;;;;;;;44.15;41.30;;;16.40;99.90;;;;;;4972344;28;20046;-72
2023/10/08 00:16:58;;;;;;;50.22;46.92;;;16.20;99.90;;;;;;4971014;28;20065;-71
2023/10/08 00:19:24;;;;;;;38.35;35.72;;;16.20;99.90;;;;;;4964191;28;20396;-72
2023/10/08 00:21:53;;;;;;;40.22;37.75;;;16.20;99.90;;;;;;4968868;28;20051;-72
2023/10/08 00:24:26;;;;;;;39.28;36.83;;;16.20;99.90;;;;;;4965058;28;20031;-72
2023/10/08 00:26:54;;;;;;;38.67;36.17;;;16.30;99.90;;;;;;4966520;28;20058;-72
2023/10/08 00:29:24;;;;;;;39.90;37.35;;;16.30;99.90;;;;;;4971401;28;20058;-72
2023/10/08 00:31:50;;;;;;;37.40;34.90;;;16.30;99.90;;;;;;4961014;28;20395;-72
2023/10/08 00:34:19;;;;;;;36.08;33.78;;;16.30;99.90;;;;;;4971837;28;20306;-72
2023/10/08 00:36:46;;;;;;;38.17;35.45;;;16.30;99.90;;;;;;4967766;28;20051;-72
2023/10/08 00:39:34;;;;;;;49.65;46.72;;;16.30;99.90;;;;;;4970163;28;20034;-72
2023/10/08 00:42:04;;;;;;;43.53;40.92;;;16.30;99.90;;;;;;4965714;28;20055;-72
2023/10/08 00:44:32;;;;;;;57.58;53.92;;;16.30;99.90;;;;;;4971042;28;20595;-72
2023/10/08 00:47:00;;;;;;;39.85;37.38;;;16.30;99.90;;;;;;4970643;28;20067;-71
2023/10/08 00:49:47;;;;;;;42.83;40.13;;;16.40;99.90;;;;;;4966839;28;20047;-72
2023/10/08 00:57:28;;;;;;;39.95;37.50;;;16.20;99.90;;;;;;4974414;28;20039;-72
2023/10/08 00:59:55;;;;;;;37.97;35.63;;;16.20;99.90;;;;;;4972376;28;20054;-73
2023/10/08 01:02:26;;;;;;;49.83;46.83;;;16.20;99.90;;;;;;4965834;28;20039;-72
2023/10/08 01:04:54;;;;;;;66.20;62.40;;;16.10;99.90;;;;;;4963323;28;20043;-73
2023/10/08 01:07:20;;;;;;;56.90;53.25;;;16.10;99.90;;;;;;4956776;28;20046;-72
2023/10/08 01:10:20;;;;;;;59.25;55.85;;;16.00;99.90;;;;;;4969881;28;20070;-72
2023/10/08 01:12:54;;;;;;;55.92;52.55;;;16.00;99.90;;;;;;4970682;28;20046;-72
2023/10/08 01:15:28;;;;;;;51.38;48.33;;;16.00;99.90;;;;;;4970746;28;20062;-72
2023/10/08 01:18:01;;;;;;;55.13;51.85;;;16.00;99.90;;;;;;4971989;28;20383;-72
2023/10/08 01:20:36;;;;;;;54.95;51.78;;;16.00;99.90;;;;;;4970852;28;20117;-72
2023/10/08 01:23:21;;;;;;;55.60;52.40;;;16.00;99.90;;;;;;4971229;28;20058;-72
2023/10/08 01:25:51;;;;;;;53.03;49.88;;;15.90;99.90;;;;;;4967328;28;20048;-72
2023/10/08 01:28:25;;;;;;;54.47;51.17;;;15.90;99.90;;;;;;4963610;28;20034;-71
2023/10/08 01:30:57;;;;;;;53.03;49.78;;;16.00;99.90;;;;;;4964772;28;20046;-72
2023/10/08 01:33:28;;;;;;;58.70;55.20;;;16.00;99.90;;;;;;4969225;28;20057;-72
2023/10/08 01:35:54;;;;;;;54.63;51.33;;;15.90;99.90;;;;;;4960998;28;20045;-72
2023/10/08 01:38:23;;;;;;;62.95;59.40;;;15.90;99.90;;;;;;4970583;28;20035;-72
2023/10/08 01:40:52;;;;;;;61.95;58.38;;;15.80;99.90;;;;;;4965724;28;20026;-72
2023/10/08 01:43:19;;;;;;;61.00;57.30;;;15.80;99.90;;;;;;4970906;28;20035;-72
2023/10/08 01:45:48;;;;;;;59.60;56.17;;;15.80;99.90;;;;;;4973525;28;20031;-72
2023/10/08 01:48:27;;;;;;;56.38;52.95;;;15.80;99.90;;;;;;4975590;28;20039;-73
2023/10/08 01:50:55;;;;;;;54.97;51.70;;;15.80;99.90;;;;;;4970048;28;20053;-72
2023/10/08 01:53:21;;;;;;;55.78;52.53;;;15.70;99.90;;;;;;4971476;28;20042;-72
2023/10/08 01:55:52;;;;;;;52.58;49.38;;;15.60;99.90;;;;;;4974045;28;20030;-72
2023/10/08 01:58:18;;;;;;;53.05;49.80;;;15.70;99.90;;;;;;4970234;28;20035;-72
2023/10/08 02:00:48;;;;;;;45.72;42.83;;;15.70;99.90;;;;;;4973980;28;20038;-72
2023/10/08 02:03:18;;;;;;;44.35;41.65;;;15.60;99.90;;;;;;4985550;28;20039;-72
2023/10/08 02:05:45;;;;;;;46.17;43.50;;;15.60;99.90;;;;;;4970966;28;20900;-72
2023/10/08 02:08:12;;;;;;;43.42;40.50;;;15.60;99.90;;;;;;4973863;28;21720;-72
2023/10/08 02:10:42;;;;;;;40.70;38.10;;;15.60;99.90;;;;;;4969466;28;20538;-72
2023/10/08 02:13:09;;;;;;;45.10;42.42;;;15.60;99.90;;;;;;4975736;28;20030;-72
2023/10/08 02:15:36;;;;;;;43.03;40.35;;;15.50;99.90;;;;;;4974543;28;20058;-72
2023/10/08 02:18:04;;;;;;;39.35;36.92;;;15.50;99.90;;;;;;4974382;28;20506;-72
2023/10/08 02:20:30;;;;;;;39.83;37.30;;;15.50;99.90;;;;;;4965951;28;20031;-72
2023/10/08 02:22:56;;;;;;;40.55;38.03;;;15.50;99.90;;;;;;4961678;28;20038;-72
2023/10/08 02:25:22;;;;;;;42.92;40.10;;;15.40;99.90;;;;;;4959261;28;20042;-72
2023/10/08 02:27:49;;;;;;;43.95;41.22;;;15.40;99.90;;;;;;4974587;28;20026;-72
2023/10/08 02:30:17;;;;;;;48.22;45.08;;;15.40;99.90;;;;;;4970004;28;20035;-72
2023/10/08 02:32:44;;;;;;;51.28;47.95;;;15.40;99.90;;;;;;4974039;28;20035;-72
2023/10/08 02:35:13;;;;;;;46.60;43.67;;;15.40;99.90;;;;;;4973008;28;20038;-72
2023/10/08 02:37:39;;;;;;;52.97;49.78;;;15.40;99.90;;;;;;4968049;28;20043;-71
2023/10/08 02:40:14;;;;;;;44.97;42.33;;;15.40;99.90;;;;;;4970365;28;20043;-72
2023/10/08 02:42:41;;;;;;;40.50;38.15;;;15.40;99.90;;;;;;4966895;28;20050;-72
2023/10/08 02:45:13;;;;;;;43.28;40.78;;;15.30;99.90;;;;;;4956121;28;20031;-72
2023/10/08 02:47:46;;;;;;;46.25;43.60;;;15.40;99.90;;;;;;4972202;28;20039;-71
2023/10/08 02:50:16;;;;;;;49.67;46.55;;;15.30;99.90;;;;;;4972953;28;20042;-72
2023/10/08 02:52:44;;;;;;;41.38;38.83;;;15.30;99.90;;;;;;4962366;28;20066;-72
2023/10/08 02:55:25;;;;;;;39.58;37.17;;;15.30;99.90;;;;;;4968467;28;20043;-72
2023/10/08 02:57:51;;;;;;;39.45;36.92;;;15.30;99.90;;;;;;4972930;28;20039;-72
2023/10/08 03:00:20;;;;;;;41.08;38.30;;;15.20;99.90;;;;;;4965775;28;20065;-71
2023/10/08 03:02:46;;;;;;;45.13;42.33;;;15.20;99.90;;;;;;4971521;28;21483;-72
2023/10/08 03:05:17;;;;;;;49.08;46.00;;;15.20;99.90;;;;;;4959920;28;20045;-72
2023/10/08 03:07:43;;;;;;;45.17;42.55;;;15.10;99.90;;;;;;4970406;28;20038;-72
2023/10/08 03:10:19;;;;;;;48.42;45.53;;;15.20;99.90;;;;;;4964505;28;20046;-72
2023/10/08 03:12:49;;;;;;;44.10;41.30;;;15.10;99.90;;;;;;4964599;28;20388;-72
2023/10/08 03:15:28;;;;;;;41.53;38.72;;;15.10;99.90;;;;;;4968908;28;20043;-72
2023/10/08 03:17:57;;;;;;;36.55;34.08;;;15.10;99.90;;;;;;4974004;28;20046;-72
2023/10/08 03:20:41;;;;;;;37.92;35.55;;;15.10;99.90;;;;;;4970323;28;20500;-72
2023/10/08 03:23:23;;;;;;;40.97;38.17;;;15.00;99.90;;;;;;4962992;28;20050;-72
2023/10/08 03:26:00;;;;;;;36.15;33.85;;;15.00;99.90;;;;;;4958913;28;20043;-72
2023/10/08 03:28:34;;;;;;;36.70;34.55;;;15.10;99.90;;;;;;4970709;28;20027;-72
2023/10/08 03:31:04;;;;;;;36.67;34.28;;;15.10;99.90;;;;;;4971452;28;20026;-71
2023/10/08 03:33:34;;;;;;;38.00;35.70;;;15.10;99.90;;;;;;4972750;28;22016;-72
2023/10/08 03:36:09;;;;;;;43.10;40.43;;;15.00;99.90;;;;;;4973264;28;20053;-72
2023/10/08 03:38:45;;;;;;;40.90;38.50;;;14.90;99.90;;;;;;4966432;28;20927;-72
2023/10/08 03:41:16;;;;;;;33.15;30.95;;;14.90;99.90;;;;;;4972135;28;20050;-72
2023/10/08 03:43:52;;;;;;;38.72;36.03;;;14.90;99.90;;;;;;4957475;28;20401;-72
2023/10/08 03:46:21;;;;;;;37.70;35.35;;;14.90;99.90;;;;;;4967733;28;20043;-71
2023/10/08 03:48:57;;;;;;;41.40;38.95;;;14.90;99.90;;;;;;4972130;28;20027;-72
2023/10/08 03:51:27;;;;;;;37.28;34.67;;;14.90;99.90;;;;;;4966131;28;20046;-72
2023/10/08 03:53:59;;;;;;;40.13;37.53;;;14.80;99.90;;;;;;4973390;28;20047;-72
2023/10/08 03:56:29;;;;;;;38.95;36.17;;;14.80;99.90;;;;;;4961829;28;20580;-72
2023/10/08 03:59:00;;;;;;;37.38;34.97;;;14.80;99.90;;;;;;4971332;28;20034;-72
2023/10/08 04:01:30;;;;;;;35.83;33.38;;;14.70;99.90;;;;;;4959034;28;20423;-71
2023/10/08 04:03:59;;;;;;;34.83;32.67;;;14.70;99.90;;;;;;4973550;28;20027;-72
2023/10/08 04:09:15;;;;;;;39.58;36.97;;;14.60;99.90;;;;;;4975758;28;20050;-72
2023/10/08 04:14:19;;;;;;;34.13;31.98;;;14.70;99.90;;;;;;4977104;28;20403;-72
2023/10/08 04:16:45;;;;;;;39.78;37.33;;;14.70;99.90;;;;;;4966755;28;20039;-72
2023/10/08 04:19:12;;;;;;;36.22;33.83;;;14.70;99.90;;;;;;4973220;28;20061;-72
2023/10/08 04:21:41;;;;;;;36.40;34.20;;;14.60;99.90;;;;;;4963340;28;20057;-71
2023/10/08 04:24:08;;;;;;;35.30;33.13;;;14.70;99.90;;;;;;4972487;28;20058;-72
2023/10/08 04:26:35;;;;;;;39.22;36.70;;;14.60;99.90;;;;;;4968308;28;20069;-72
2023/10/08 04:29:02;;;;;;;40.42;37.50;;;14.60;99.90;;;;;;4971869;28;20026;-72
2023/10/08 04:31:38;;;;;;;63.42;59.60;;;14.60;99.90;;;;;;4961021;28;20044;-72
2023/10/08 04:34:17;;;;;;;42.13;39.53;;;14.50;99.90;;;;;;4962404;28;20043;-72
2023/10/08 04:36:45;;;;;;;40.47;37.80;;;14.50;99.90;;;;;;4971132;28;20031;-72
2023/10/08 04:39:14;;;;;;;44.03;41.17;;;14.50;99.90;;;;;;4971733;28;20039;-72
2023/10/08 04:41:42;;;;;;;41.00;38.58;;;14.50;99.90;;;;;;4971926;28;20046;-71
2023/10/08 04:44:14;;;;;;;38.28;35.83;;;14.60;99.90;;;;;;4963224;28;20046;-72
2023/10/08 04:46:48;;;;;;;40.00;37.42;;;14.40;99.90;;;;;;4961690;28;20043;-72
2023/10/08 04:51:56;;;;;;;30.08;28.20;;;14.10;99.90;;;;;;4965095;28;20061;-72
2023/10/08 04:54:31;;;;;;;36.70;34.40;;;14.20;99.90;;;;;;4961952;28;20059;-71
2023/10/08 04:57:01;;;;;;;34.25;32.05;;;14.10;99.90;;;;;;4957049;28;20035;-72
2023/10/08 04:59:33;;;;;;;39.50;36.95;;;14.20;99.90;;;;;;4953959;28;20070;-70
2023/10/08 05:12:45;;;;;;;40.03;37.53;;;14.00;99.90;;;;;;4960949;28;20042;-73
2023/10/08 05:20:29;;;;;;;34.85;32.30;;;13.90;99.90;;;;;;4964380;28;20502;-72
2023/10/08 05:23:05;;;;;;;31.52;29.48;;;13.80;99.90;;;;;;4977302;28;20488;-72
2023/10/08 05:25:40;;;;;;;34.45;32.40;;;13.70;99.90;;;;;;4974359;28;20512;-72
2023/10/08 05:28:11;;;;;;;33.80;31.75;;;13.70;99.90;;;;;;4976367;28;20051;-72
2023/10/08 05:35:54;;;;;;;41.60;39.13;;;14.00;99.90;;;;;;4963710;28;20050;-73
2023/10/08 05:43:48;;;;;;;39.00;36.60;;;14.10;99.90;;;;;;4982989;28;20035;-72
2023/10/08 05:49:15;;;;;;;37.35;35.15;;;14.10;99.90;;;;;;4969285;28;20055;-72
2023/10/08 06:02:28;;;;;;;38.10;35.45;;;13.90;99.90;;;;;;4954052;28;20544;-72
2023/10/08 06:13:13;;;;;;;41.40;38.90;;;14.00;99.90;;;;;;4960917;28;20043;-72
2023/10/08 06:18:25;;;;;;;38.25;36.00;;;13.90;99.90;;;;;;4960404;28;20036;-72
2023/10/08 06:20:55;;;;;;;41.03;38.50;;;13.90;99.90;;;;;;4952591;29;20050;-72
2023/10/08 06:23:23;;;;;;;40.20;37.53;;;13.90;99.90;;;;;;4952276;29;20031;-72
2023/10/08 06:26:38;;;;;;;40.75;38.22;;;13.90;99.90;;;;;;4953514;29;20050;-73
2023/10/08 06:28:43;;;;;;;40.53;38.17;;;13.80;99.90;;;;;;4948630;28;20555;-73
2023/10/08 06:31:16;;;;;;;41.03;38.28;;;13.80;99.90;;;;;;4951396;28;20046;-72
2023/10/08 06:33:43;;;;;;;43.38;40.90;;;13.90;99.90;;;;;;4954588;29;20135;-72
2023/10/08 06:38:39;;;;;;;37.10;34.45;;;13.90;99.90;;;;;;4958359;28;20045;-73
2023/10/08 06:43:47;;;;;;;38.30;36.05;;;13.90;99.90;;;;;;4977479;28;20031;-72
2023/10/08 06:46:14;;;;;;;37.60;34.95;;;13.90;99.90;;;;;;4955626;28;20036;-73
2023/10/08 06:48:44;;;;;;;40.60;38.15;;;14.00;99.90;;;;;;4956872;28;20058;-73
2023/10/08 06:51:13;;;;;;;59.53;56.05;;;14.10;99.90;;;;;;4950763;28;20043;-73
2023/10/08 06:53:44;;;;;;;42.00;39.47;;;14.20;99.90;;;;;;4949107;29;20039;-73
2023/10/08 06:56:12;;;;;;;;;;;14.20;99.90;;;;;;4948098;28;20074;-72
2023/10/08 06:58:39;;;;;;;39.85;37.42;;;14.10;99.90;;;;;;4956000;28;19914;-72
2023/10/08 07:01:05;;;;;;;44.63;41.60;;;13.90;99.90;;;;;;4960610;28;20034;-73
2023/10/08 07:03:32;;;;;;;32.47;30.40;;;14.00;99.90;;;;;;4974280;28;20038;-73
2023/10/08 07:05:59;;;;;;;38.78;36.40;;;14.10;99.90;;;;;;4966554;28;20035;-73
2023/10/08 07:08:27;;;;;;;44.20;41.20;;;14.00;99.90;;;;;;4959042;28;20046;-73
2023/10/08 07:10:53;;;;;;;39.90;37.40;;;13.90;99.90;;;;;;4969314;28;20026;-73
2023/10/08 07:13:22;;;;;;;34.03;31.98;;;14.10;99.90;;;;;;4964058;28;20479;-73
2023/10/08 07:15:50;;;;;;;35.90;33.58;;;14.20;99.90;;;;;;4968595;28;20039;-71
2023/10/08 07:18:24;;;;;;;37.42;34.80;;;14.30;99.90;;;;;;4973549;28;20039;-71
2023/10/08 07:20:55;;;;;;;34.03;32.00;;;14.40;99.90;;;;;;4974750;28;20388;-72
2023/10/08 07:23:25;;;;;;;;;;;14.60;99.90;;;;;;4963021;28;20050;-71
2023/10/08 07:25:59;;;;;;;22.42;20.67;;;14.90;99.90;;;;;;4968371;28;20387;-71
2023/10/08 07:28:26;;;;;;;27.02;25.05;;;15.10;99.90;;;;;;4957868;28;20054;-71
2023/10/08 07:30:52;;;;;;;23.30;21.55;;;14.90;99.90;;;;;;4956927;28;20035;-71
2023/10/08 07:33:18;;;;;;;22.48;20.77;;;14.80;99.90;;;;;;4966356;28;20047;-71
2023/10/08 07:35:57;;;;;;;40.85;38.35;;;15.10;99.90;;;;;;4972981;28;20430;-71
2023/10/08 07:38:27;;;;;;;48.30;45.45;;;15.20;99.90;;;;;;4958178;28;20043;-71
2023/10/08 07:40:55;;;;;;;59.38;55.97;;;15.30;99.90;;;;;;4971935;28;20047;-71
2023/10/08 07:43:21;;;;;;;44.15;41.42;;;15.40;99.90;;;;;;4973168;28;20067;-71
2023/10/08 07:45:47;;;;;;;33.28;31.27;;;15.70;99.90;;;;;;4972934;28;20035;-71
2023/10/08 07:48:13;;;;;;;36.92;34.78;;;15.70;99.90;;;;;;4969809;28;20047;-71
2023/10/08 07:50:46;;;;;;;29.08;27.20;;;15.70;99.90;;;;;;4967482;28;20395;-71
2023/10/08 07:53:19;;;;;;;28.60;26.83;;;15.60;99.90;;;;;;4967443;28;20475;-71
2023/10/08 07:55:46;;;;;;;27.05;25.35;;;15.50;99.90;;;;;;4972750;28;20058;-71
2023/10/08 07:58:14;;;;;;;28.05;26.25;;;15.60;99.90;;;;;;4972767;28;20043;-71
2023/10/08 08:00:41;;;;;;;31.92;29.67;;;15.60;99.90;;;;;;4965379;28;20035;-71
2023/10/08 08:03:07;;;;;;;36.58;34.30;;;15.70;99.90;;;;;;4972804;28;20039;-69
2023/10/08 08:05:34;;;;;;;30.70;28.85;;;15.90;99.90;;;;;;4972785;28;20035;-71
2023/10/08 08:08:05;;;;;;;31.08;29.13;;;16.10;99.90;;;;;;4962598;28;20054;-71
2023/10/08 08:10:38;;;;;;;38.17;35.90;;;16.20;99.90;;;;;;4955962;28;20066;-71
2023/10/08 08:13:08;;;;;;;29.50;27.63;;;16.20;99.90;;;;;;4954635;28;20035;-71
2023/10/08 08:15:39;;;;;;;64.43;60.60;;;16.20;99.90;;;;;;4957209;28;20050;-71
2023/10/08 08:18:06;;;;;;;72.55;68.57;;;16.30;99.90;;;;;;4967440;28;20290;-71
2023/10/08 08:20:38;;;;;;;50.90;47.92;;;16.40;99.90;;;;;;4955512;28;20051;-71
2023/10/08 08:23:07;;;;;;;49.05;46.38;;;16.30;99.90;;;;;;4962795;28;20058;-71
2023/10/08 08:25:55;;;;;;;50.08;47.33;;;16.40;99.90;;;;;;4970346;28;20044;-71
2023/10/08 08:28:24;;;;;;;49.00;46.28;;;16.40;99.90;;;;;;4954374;28;20047;-71
2023/10/08 08:30:52;;;;;;;66.25;62.65;;;16.60;99.90;;;;;;4958179;28;20042;-71
2023/10/08 08:33:24;;;;;;;75.65;71.55;;;16.70;99.90;;;;;;4968147;28;20396;-71
2023/10/08 08:36:00;;;;;;;102.53;97.22;;;16.80;99.90;;;;;;4955884;28;20051;-72
2023/10/08 08:38:29;;;;;;;114.45;108.60;;;16.90;99.90;;;;;;4953524;28;20388;-72
2023/10/08 08:41:06;;;;;;;107.10;101.65;;;17.00;99.90;;;;;;4958409;28;20392;-71
2023/10/08 08:43:34;;;;;;;69.40;65.63;;;17.10;99.90;;;;;;4966194;28;20043;-72
2023/10/08 08:46:10;;;;;;;71.00;67.30;;;17.10;99.90;;;;;;4955837;28;20031;-72
2023/10/08 08:48:36;;;;;;;75.15;71.22;;;17.10;99.90;;;;;;4958836;28;20054;-71
2023/10/08 08:51:02;;;;;;;77.15;73.10;;;17.20;99.90;;;;;;4968575;28;20043;-71
2023/10/08 08:53:28;;;;;;;79.05;75.00;;;17.30;99.90;;;;;;4963566;28;20043;-72
2023/10/08 08:55:55;;;;;;;92.50;87.78;;;17.40;99.90;;;;;;4957665;28;20047;-71
2023/10/08 08:58:22;;;;;;;71.90;68.10;;;17.40;99.90;;;;;;4961155;28;20031;-71
2023/10/08 09:00:48;;;;;;;82.07;77.35;;;17.50;99.90;;;;;;4964452;28;20043;-72
2023/10/08 09:03:14;;;;;;;86.18;81.72;;;17.60;99.90;;;;;;4955482;28;20035;-71
2023/10/08 09:05:42;;;;;;;92.88;87.85;;;17.60;99.90;;;;;;4971945;28;20046;-71
2023/10/08 09:08:09;;;;;;;82.50;78.13;;;17.80;99.90;;;;;;4967398;28;20050;-72
2023/10/08 09:10:51;;;;;;;86.10;81.70;;;17.90;99.90;;;;;;4956592;28;20083;-72
2023/10/08 09:13:20;;;;;;;109.38;103.65;;;18.10;99.90;;;;;;4965263;28;20031;-71
2023/10/08 09:15:47;;;;;;;102.15;97.00;;;18.20;99.90;;;;;;4968180;28;20046;-71
2023/10/08 09:18:14;;;;;;;144.02;136.68;;;18.10;99.90;;;;;;4960311;28;20053;-72
2023/10/08 09:20:43;;;;;;;146.98;138.95;;;18.10;99.90;;;;;;4954936;28;20045;-71
2023/10/08 09:23:11;;;;;;;105.68;100.38;;;18.30;99.90;;;;;;4956470;28;20054;-72
2023/10/08 09:25:40;;;;;;;128.30;121.78;;;18.40;99.90;;;;;;4963686;28;20050;-70
2023/10/08 09:28:07;;;;;;;137.15;130.05;;;18.60;99.90;;;;;;4962728;28;20555;-71
2023/10/08 09:30:39;;;;;;;146.00;138.13;;;18.60;99.90;;;;;;4959491;28;20035;-72
2023/10/08 09:33:07;;;;;;;203.00;192.70;;;18.70;99.90;;;;;;4958381;28;20027;-70
2023/10/08 09:35:33;;;;;;;246.23;233.85;;;18.80;99.90;;;;;;4965564;28;20060;-72
2023/10/08 09:38:09;;;;;;;164.98;156.32;;;18.80;99.90;;;;;;4970775;28;20054;-72
2023/10/08 09:40:41;;;;;;;227.90;216.55;;;18.80;99.90;;;;;;4963382;28;20062;-72
2023/10/08 09:43:09;;;;;;;229.07;217.63;;;18.90;99.90;;;;;;4957986;28;20038;-72
2023/10/08 09:45:37;;;;;;;146.82;139.23;;;19.00;99.90;;;;;;4967509;28;20031;-72
2023/10/08 09:48:03;;;;;;;222.05;210.88;;;19.10;99.90;;;;;;4964700;28;20057;-72
2023/10/08 09:50:32;;;;;;;153.38;145.45;;;19.20;99.90;;;;;;4951340;28;20573;-72
2023/10/08 09:53:07;;;;;;;150.45;142.75;;;19.20;99.90;;;;;;4970020;28;20345;-72
2023/10/08 09:55:34;;;;;;;174.85;165.68;;;19.40;99.90;;;;;;4964857;28;20510;-72
2023/10/08 09:58:00;;;;;;;148.57;140.93;;;19.40;99.90;;;;;;4963340;28;20040;-72
2023/10/08 10:00:30;;;;;;;152.40;144.70;;;19.60;99.90;;;;;;4979915;28;20049;-71
2023/10/08 10:03:02;;;;;;;167.73;159.20;;;19.60;99.90;;;;;;4954156;28;20047;-72
2023/10/08 10:05:35;;;;;;;148.98;141.32;;;19.80;99.90;;;;;;4988710;28;20042;-71
2023/10/08 10:08:05;;;;;;;152.27;144.55;;;19.80;99.90;;;;;;4971133;28;20039;-72
2023/10/08 10:10:34;;;;;;;177.30;168.10;;;20.00;99.90;;;;;;4972738;28;20039;-72
2023/10/08 10:13:03;;;;;;;231.60;219.93;;;20.10;99.90;;;;;;4957918;28;20046;-71
2023/10/08 10:15:32;;;;;;;250.57;238.00;;;20.10;99.90;;;;;;4963321;28;20042;-72
2023/10/08 10:18:08;;;;;;;205.55;195.27;;;20.20;99.90;;;;;;4955869;29;20054;-72
2023/10/08 10:20:34;;;;;;;239.05;227.10;;;20.30;99.90;;;;;;4956027;28;20027;-71
2023/10/08 10:23:00;;;;;;;236.90;225.02;;;20.50;99.90;;;;;;4956472;28;20506;-71
2023/10/08 10:25:35;;;;;;;164.05;155.90;;;20.60;99.90;;;;;;4963193;28;20045;-72
2023/10/08 10:28:04;;;;;;;151.82;143.98;;;20.60;99.90;;;;;;4955005;29;20039;-71
2023/10/08 10:30:30;;;;;;;158.38;150.27;;;20.70;99.90;;;;;;4956339;28;20734;-72
2023/10/08 10:33:00;;;;;;;151.77;143.85;;;20.80;99.90;;;;;;4956192;28;20046;-70
2023/10/08 10:35:27;;;;;;;154.70;146.75;;;20.90;99.90;;;;;;4965769;28;20050;-71
2023/10/08 10:37:55;;;;;;;179.63;170.63;;;21.00;99.90;;;;;;4972855;28;20054;-72
2023/10/08 10:40:39;;;;;;;179.23;169.70;;;21.10;99.90;;;;;;4972509;28;20399;-72
2023/10/08 10:43:15;;;;;;;263.98;246.85;;;21.20;99.90;;;;;;4967804;28;20042;-71
2023/10/08 10:45:44;;;;;;;230.10;218.75;;;21.30;99.90;;;;;;4972333;28;20038;-71
2023/10/08 10:51:07;;;;;;;300.45;285.40;;;21.40;99.90;;;;;;4974506;28;20026;-72
2023/10/08 10:54:19;;;;;;;303.65;288.38;;;21.50;99.90;;;;;;4975303;28;20042;-71
2023/10/08 10:56:40;;;;;;;271.98;258.80;;;21.60;99.90;;;;;;4966420;28;20050;-72
2023/10/08 10:59:18;;;;;;;330.75;314.35;;;21.70;99.90;;;;;;4960656;28;20051;-71
2023/10/08 11:01:52;;;;;;;341.80;325.10;;;21.80;99.90;;;;;;4964197;28;20042;-71
2023/10/08 11:04:19;;;;;;;370.63;351.88;;;22.00;99.90;;;;;;4959088;28;20043;-72
2023/10/08 11:06:46;;;;;;;389.10;369.25;;;22.10;99.90;;;;;;4956447;28;20054;-72
2023/10/08 11:09:17;;;;;;;364.02;345.67;;;22.10;99.90;;;;;;4958251;28;20029;-72
2023/10/08 11:11:51;;;;;;;326.35;309.83;;;22.20;99.90;;;;;;4964295;28;20043;-71
2023/10/08 11:14:18;;;;;;;297.65;282.90;;;22.30;99.90;;;;;;4966770;28;20046;-71
2023/10/08 11:16:48;;;;;;;331.50;314.67;;;22.30;99.90;;;;;;4965678;28;20053;-72
2023/10/08 11:19:15;;;;;;;339.05;321.67;;;22.40;99.90;;;;;;4970004;28;20027;-72
2023/10/08 11:21:50;;;;;;;320.05;303.88;;;22.50;99.90;;;;;;4965163;28;20049;-71
2023/10/08 11:24:33;;;;;;;317.73;301.88;;;22.60;99.90;;;;;;4960933;28;20050;-72
2023/10/08 11:27:15;;;;;;;1999.90;999.90;;;22.60;99.90;;;;;;4965153;28;20047;-70
2023/10/08 11:29:46;;;;;;;1999.90;999.90;;;22.70;99.90;;;;;;4955174;28;20065;-71
2023/10/08 11:32:17;;;;;;;1999.90;999.90;;;22.90;99.90;;;;;;4969995;28;20031;-72
2023/10/08 11:34:50;;;;;;;1999.90;999.90;;;22.90;99.90;;;;;;4970106;28;20538;-72
2023/10/08 11:37:29;;;;;;;1999.90;999.90;;;23.10;99.90;;;;;;4960094;28;20039;-71
2023/10/08 11:39:58;;;;;;;1999.90;999.90;;;23.10;99.90;;;;;;4954941;28;20035;-71
2023/10/08 11:45:17;;;;;;;1999.90;999.90;;;23.30;99.90;;;;;;4961533;28;20023;-72
2023/10/08 11:47:48;;;;;;;1999.90;999.90;;;23.40;99.90;;;;;;4949363;28;20042;-72
2023/10/08 11:50:21;;;;;;;1999.90;999.90;;;23.40;99.90;;;;;;4944578;28;20043;-72
2023/10/08 11:52:47;;;;;;;1999.90;999.90;;;23.50;99.90;;;;;;4954456;29;20380;-72
2023/10/08 11:55:19;;;;;;;1999.90;999.90;;;23.60;99.90;;;;;;4953734;29;20046;-72
2023/10/08 11:57:48;;;;;;;1999.90;999.90;;;23.70;99.90;;;;;;4946659;29;20484;-72
2023/10/08 12:00:20;;;;;;;1999.90;999.90;;;23.80;99.40;;;;;;4952872;28;20051;-71
2023/10/08 12:02:47;;;;;;;1999.90;999.90;;;23.90;99.10;;;;;;4959742;28;20043;-72
2023/10/08 12:05:19;;;;;;;1999.90;999.90;;;23.90;99.20;;;;;;4955907;28;20046;-72
2023/10/08 12:07:50;;;;;;;1999.90;999.90;;;24.00;99.30;;;;;;4970996;28;20039;-71
2023/10/08 12:10:22;;;;;;;1999.90;999.90;;;24.10;99.00;;;;;;4963016;28;20038;-72
2023/10/08 12:12:49;;;;;;;1999.90;999.90;;;24.20;98.90;;;;;;4959657;28;20038;-72
2023/10/08 12:15:19;;;;;;;1999.90;999.90;;;24.30;98.00;;;;;;4960459;28;20378;-72
2023/10/08 12:18:08;;;;;;;1999.90;999.90;;;24.40;98.10;;;;;;4973600;28;20480;-72
2023/10/08 12:20:43;;;;;;;1999.90;999.90;;;24.50;97.90;;;;;;4968968;28;20305;-71
2023/10/08 12:23:10;;;;;;;1999.90;999.90;;;24.50;98.00;;;;;;4973504;28;20043;-71
2023/10/08 12:25:37;;;;;;;1999.90;999.90;;;24.70;97.90;;;;;;4969173;28;20035;-72
2023/10/08 12:28:04;;;;;;;1999.90;999.90;;;24.70;97.50;;;;;;4970411;28;20035;-72
2023/10/08 12:30:31;;;;;;;1999.90;999.90;;;24.80;97.60;;;;;;4964226;28;20035;-72
2023/10/08 12:32:58;;;;;;;1999.90;999.90;;;24.80;97.60;;;;;;4973355;28;20050;-71
2023/10/08 12:35:24;;;;;;;1999.90;999.90;;;24.90;97.30;;;;;;4962181;28;20039;-72
2023/10/08 12:37:50;;;;;;;1999.90;999.90;;;24.90;97.50;;;;;;4972381;28;20086;-72
2023/10/08 12:40:22;;;;;;;1999.90;999.90;;;25.00;98.10;;;;;;4964613;28;20030;-72
2023/10/08 12:42:50;;;;;;;1999.90;999.90;;;25.00;97.30;;;;;;4966476;28;20388;-72
2023/10/08 12:45:20;;;;;;;1999.90;999.90;;;25.20;97.90;;;;;;4964094;28;20043;-71
2023/10/08 12:47:50;;;;;;;1999.90;999.90;;;25.30;97.40;;;;;;4972385;28;20064;-72
2023/10/08 12:50:23;;;;;;;1999.90;999.90;;;25.30;97.20;;;;;;4967470;28;20388;-71
2023/10/08 12:52:55;;;;;;;1999.90;999.90;;;25.40;97.20;;;;;;4971097;28;20400;-71
2023/10/08 12:55:25;;;;;;;1999.90;999.90;;;25.50;96.90;;;;;;4972723;28;20050;-71
2023/10/08 12:58:09;;;;;;;1999.90;999.90;;;25.60;96.50;;;;;;4954687;28;20051;-72
2023/10/08 13:00:38;;;;;;;1999.90;999.90;;;25.60;96.30;;;;;;4969202;28;20043;-71
2023/10/08 13:03:22;;;;;;;1999.90;999.90;;;25.60;96.50;;;;;;4967791;28;20039;-72
2023/10/08 13:05:52;;;;;;;1999.90;999.90;;;25.70;96.60;;;;;;4969421;28;20046;-72
2023/10/08 13:08:21;;;;;;;1999.90;999.90;;;25.70;96.40;;;;;;4971379;28;20424;-71
2023/10/08 13:10:47;;;;;;;1999.90;999.90;;;25.80;95.70;;;;;;4972073;28;20046;-71
2023/10/08 13:13:14;;;;;;;1999.90;999.90;;;25.90;95.50;;;;;;4971418;28;20387;-72
2023/10/08 13:15:41;;;;;;;1999.90;999.90;;;25.90;95.40;;;;;;4959616;28;20046;-71
2023/10/08 13:18:08;;;;;;;1999.90;999.90;;;25.90;95.20;;;;;;4972599;28;20058;-72
2023/10/08 13:20:34;;;;;;;1999.90;999.90;;;26.00;95.80;;;;;;4972233;28;20030;-72
2023/10/08 13:23:01;;;;;;;1999.90;999.90;;;26.00;95.20;;;;;;4971385;28;20399;-71
2023/10/08 13:25:27;;;;;;;1999.90;999.90;;;26.10;95.60;;;;;;4955667;28;20723;-72
2023/10/08 13:27:54;;;;;;;1999.90;999.90;;;26.10;95.20;;;;;;4971657;28;20467;-72
2023/10/08 13:30:20;;;;;;;1999.90;999.90;;;26.20;95.30;;;;;;4967040;28;20102;-72
2023/10/08 13:32:47;;;;;;;1999.90;999.90;;;26.20;94.70;;;;;;4969622;28;20043;-71
2023/10/08 13:35:13;;;;;;;1999.90;999.90;;;26.30;94.10;;;;;;4962656;28;20042;-72
2023/10/08 13:37:40;;;;;;;1999.90;999.90;;;26.30;94.10;;;;;;4960881;28;20508;-71
2023/10/08 13:40:07;;;;;;;1999.90;999.90;;;26.30;94.00;;;;;;4967129;28;20046;-72
2023/10/08 13:42:33;;;;;;;1999.90;999.90;;;26.30;94.20;;;;;;4972708;28;20042;-72
2023/10/08 13:44:59;;;;;;;1999.90;999.90;;;26.30;94.10;;;;;;4971685;28;20669;-71
2023/10/08 13:47:26;;;;;;;1999.90;999.90;;;26.30;94.20;;;;;;4969579;28;20518;-72
2023/10/08 13:49:53;;;;;;;1999.90;999.90;;;26.40;93.90;;;;;;4974152;28;20035;-72